Startpagina
METAR-TAF:

METAR-TAF

Vliegvelden :

Koeweit, Koeweit

breedte: 29-13N, lengte: 047-59E, hoogte: 55 m

Actueel weer

Dit bericht is 36 minuten geleden gemaakt, om 06:00 UTC
Wind 7 kt uit het noordwesten
Temperatuur 41°C
Vochtigheid 15%
Druk 998 hPa
Zicht 10 km of meer
geen wolken onder 1500 m en geen cumulonimbus

METAR: OKBK 220600Z 31007KT CAVOK 41/09 Q0998 NOSIG

Tijdstip: 09:36 (06:36 UTC)

Verwachting

Dit bericht is 1 uur en het 51 minuten geleden gemaakt, om 04:45 UTC
Verwachting geldig van 22 om 06 UTC tot 23 om 12 UTC
Wind 12 kt uit het noorden
Zicht: 7000 m
Onbewolkt
Tijdelijke
van 22 om 09 UTC tot 22 om 15 UTC
Wind 10 kt uit het noordoosten

TAF: OKBK 220445Z 2206/2312 35012KT 7000 SKC TEMPO 2209/2215 04010KT

Waarnemingen en weersverwachtingen van meer dan 4000 vliegvelden (METAR en TAF).

De beschikbare stations zijn de gele en rode punten op de kaart.

Ga met uw muis naar het station om de naam te zien.

Klik dan om waarnemingen en weersverwachtingen te zien.

kaart wijzigen: klik op de groene knoppen met een zwart kruis om in te zoomen, op de groene knop met een streepje om uit te zoomen of op de groene pijlen voor aangrenzende kaarten.


METAR-TAF: